sensor_id;sensor_type;location;lat;lon;timestamp;P1;durP1;ratioP1;P2;durP2;ratioP2
39930;SDS011;26635;-35.248;149.138;2023-03-11T00:02:18;5.13;;;1.88;;
39930;SDS011;26635;-35.248;149.138;2023-03-11T00:04:54;3.88;;;2.03;;
39930;SDS011;26635;-35.248;149.138;2023-03-11T00:07:25;4.65;;;2.42;;
39930;SDS011;26635;-35.248;149.138;2023-03-11T00:09:57;5.13;;;2.10;;
39930;SDS011;26635;-35.248;149.138;2023-03-11T00:12:28;2.95;;;2.10;;
39930;SDS011;26635;-35.248;149.138;2023-03-11T00:14:59;5.75;;;1.90;;
39930;SDS011;26635;-35.248;149.138;2023-03-11T00:17:30;4.13;;;2.70;;
39930;SDS011;26635;-35.248;149.138;2023-03-11T00:20:01;3.22;;;2.13;;
39930;SDS011;26635;-35.248;149.138;2023-03-11T00:22:33;2.83;;;1.60;;
39930;SDS011;26635;-35.248;149.138;2023-03-11T00:25:04;5.05;;;2.03;;
39930;SDS011;26635;-35.248;149.138;2023-03-11T00:27:39;4.28;;;1.88;;
39930;SDS011;26635;-35.248;149.138;2023-03-11T00:30:10;4.25;;;1.58;;
39930;SDS011;26635;-35.248;149.138;2023-03-11T00:32:42;3.20;;;1.73;;
39930;SDS011;26635;-35.248;149.138;2023-03-11T00:35:15;2.75;;;1.40;;
39930;SDS011;26635;-35.248;149.138;2023-03-11T00:37:47;2.75;;;1.40;;
39930;SDS011;26635;-35.248;149.138;2023-03-11T00:40:21;2.97;;;1.40;;
39930;SDS011;26635;-35.248;149.138;2023-03-11T00:42:53;2.22;;;1.05;;
39930;SDS011;26635;-35.248;149.138;2023-03-11T00:45:25;2.08;;;1.10;;
39930;SDS011;26635;-35.248;149.138;2023-03-11T00:47:57;4.93;;;1.42;;
39930;SDS011;26635;-35.248;149.138;2023-03-11T00:50:30;2.50;;;1.25;;
39930;SDS011;26635;-35.248;149.138;2023-03-11T00:53:04;3.63;;;1.20;;
39930;SDS011;26635;-35.248;149.138;2023-03-11T00:55:35;3.25;;;1.58;;
39930;SDS011;26635;-35.248;149.138;2023-03-11T00:58:06;2.08;;;1.30;;
39930;SDS011;26635;-35.248;149.138;2023-03-11T01:00:37;2.15;;;1.20;;
39930;SDS011;26635;-35.248;149.138;2023-03-11T01:03:08;2.45;;;1.10;;
39930;SDS011;26635;-35.248;149.138;2023-03-11T01:05:40;5.63;;;1.20;;
39930;SDS011;26635;-35.248;149.138;2023-03-11T01:08:13;2.83;;;1.00;;
39930;SDS011;26635;-35.248;149.138;2023-03-11T01:10:44;3.53;;;0.95;;
39930;SDS011;26635;-35.248;149.138;2023-03-11T01:13:15;1.75;;;0.90;;
39930;SDS011;26635;-35.248;149.138;2023-03-11T01:15:46;1.45;;;0.90;;
39930;SDS011;26635;-35.248;149.138;2023-03-11T01:18:17;2.53;;;0.88;;
39930;SDS011;26635;-35.248;149.138;2023-03-11T01:20:50;3.45;;;1.00;;
39930;SDS011;26635;-35.248;149.138;2023-03-11T01:23:21;3.65;;;1.15;;
39930;SDS011;26635;-35.248;149.138;2023-03-11T01:25:52;2.13;;;1.10;;
39930;SDS011;26635;-35.248;149.138;2023-03-11T01:28:23;2.92;;;1.50;;
39930;SDS011;26635;-35.248;149.138;2023-03-11T01:30:55;1.90;;;1.10;;
39930;SDS011;26635;-35.248;149.138;2023-03-11T01:33:26;2.83;;;1.20;;
39930;SDS011;26635;-35.248;149.138;2023-03-11T01:35:57;2.22;;;1.00;;
39930;SDS011;26635;-35.248;149.138;2023-03-11T01:38:28;2.63;;;1.10;;
39930;SDS011;26635;-35.248;149.138;2023-03-11T01:40:59;2.13;;;0.70;;
39930;SDS011;26635;-35.248;149.138;2023-03-11T01:43:37;1.90;;;0.88;;
39930;SDS011;26635;-35.248;149.138;2023-03-11T01:46:16;3.95;;;1.10;;
39930;SDS011;26635;-35.248;149.138;2023-03-11T01:49:03;2.15;;;1.05;;
39930;SDS011;26635;-35.248;149.138;2023-03-11T01:51:42;3.80;;;0.90;;
39930;SDS011;26635;-35.248;149.138;2023-03-11T01:54:19;4.15;;;0.90;;
39930;SDS011;26635;-35.248;149.138;2023-03-11T01:57:01;2.30;;;0.90;;
39930;SDS011;26635;-35.248;149.138;2023-03-11T01:59:36;5.18;;;1.50;;
39930;SDS011;26635;-35.248;149.138;2023-03-11T02:04:55;1.85;;;0.95;;
39930;SDS011;26635;-35.248;149.138;2023-03-11T02:07:28;3.60;;;0.90;;
39930;SDS011;26635;-35.248;149.138;2023-03-11T02:10:04;2.90;;;0.80;;
39930;SDS011;26635;-35.248;149.138;2023-03-11T02:12:36;3.38;;;0.95;;
39930;SDS011;26635;-35.248;149.138;2023-03-11T02:15:10;3.50;;;1.00;;
39930;SDS011;26635;-35.248;149.138;2023-03-11T02:17:43;2.08;;;0.90;;
39930;SDS011;26635;-35.248;149.138;2023-03-11T02:22:47;1.30;;;0.68;;
39930;SDS011;26635;-35.248;149.138;2023-03-11T02:25:34;2.40;;;0.80;;
39930;SDS011;26635;-35.248;149.138;2023-03-11T02:28:25;1.85;;;0.45;;
39930;SDS011;26635;-35.248;149.138;2023-03-11T02:30:59;2.58;;;0.70;;
39930;SDS011;26635;-35.248;149.138;2023-03-11T02:33:31;3.50;;;0.50;;
39930;SDS011;26635;-35.248;149.138;2023-03-11T02:36:07;2.67;;;1.05;;
39930;SDS011;26635;-35.248;149.138;2023-03-11T02:39:00;5.20;;;1.10;;
39930;SDS011;26635;-35.248;149.138;2023-03-11T02:41:34;2.78;;;0.60;;
39930;SDS011;26635;-35.248;149.138;2023-03-11T02:44:08;2.65;;;0.77;;
39930;SDS011;26635;-35.248;149.138;2023-03-11T02:46:41;4.60;;;0.90;;
39930;SDS011;26635;-35.248;149.138;2023-03-11T02:49:13;1.95;;;0.80;;
39930;SDS011;26635;-35.248;149.138;2023-03-11T02:51:52;2.63;;;0.85;;
39930;SDS011;26635;-35.248;149.138;2023-03-11T02:54:23;2.63;;;0.50;;
39930;SDS011;26635;-35.248;149.138;2023-03-11T02:56:54;4.07;;;1.35;;
39930;SDS011;26635;-35.248;149.138;2023-03-11T02:59:25;3.78;;;1.75;;
39930;SDS011;26635;-35.248;149.138;2023-03-11T03:01:57;27.15;;;2.85;;
39930;SDS011;26635;-35.248;149.138;2023-03-11T03:04:28;1.50;;;0.70;;
39930;SDS011;26635;-35.248;149.138;2023-03-11T03:06:59;6.45;;;0.85;;
39930;SDS011;26635;-35.248;149.138;2023-03-11T03:09:30;2.25;;;0.57;;
39930;SDS011;26635;-35.248;149.138;2023-03-11T03:12:02;2.38;;;0.65;;
39930;SDS011;26635;-35.248;149.138;2023-03-11T03:14:34;3.70;;;1.02;;
39930;SDS011;26635;-35.248;149.138;2023-03-11T03:17:04;1.40;;;0.50;;
39930;SDS011;26635;-35.248;149.138;2023-03-11T03:19:35;1.08;;;0.60;;
39930;SDS011;26635;-35.248;149.138;2023-03-11T03:22:06;3.03;;;0.85;;
39930;SDS011;26635;-35.248;149.138;2023-03-11T03:24:38;2.90;;;0.50;;
39930;SDS011;26635;-35.248;149.138;2023-03-11T03:27:09;2.20;;;0.52;;
39930;SDS011;26635;-35.248;149.138;2023-03-11T03:29:40;1.58;;;0.65;;
39930;SDS011;26635;-35.248;149.138;2023-03-11T03:32:10;0.85;;;0.40;;
39930;SDS011;26635;-35.248;149.138;2023-03-11T03:34:42;0.88;;;0.30;;
39930;SDS011;26635;-35.248;149.138;2023-03-11T03:37:13;1.58;;;0.50;;
39930;SDS011;26635;-35.248;149.138;2023-03-11T03:39:44;4.18;;;0.85;;
39930;SDS011;26635;-35.248;149.138;2023-03-11T03:42:15;5.45;;;1.10;;
39930;SDS011;26635;-35.248;149.138;2023-03-11T03:44:46;1.95;;;0.40;;
39930;SDS011;26635;-35.248;149.138;2023-03-11T03:47:17;1.33;;;0.60;;
39930;SDS011;26635;-35.248;149.138;2023-03-11T03:49:50;2.80;;;0.68;;
39930;SDS011;26635;-35.248;149.138;2023-03-11T03:52:21;2.38;;;0.60;;
39930;SDS011;26635;-35.248;149.138;2023-03-11T03:54:52;1.33;;;0.50;;
39930;SDS011;26635;-35.248;149.138;2023-03-11T03:57:22;1.40;;;0.50;;
39930;SDS011;26635;-35.248;149.138;2023-03-11T03:59:55;0.90;;;0.38;;
39930;SDS011;26635;-35.248;149.138;2023-03-11T04:02:26;2.13;;;0.95;;
39930;SDS011;26635;-35.248;149.138;2023-03-11T04:04:57;0.77;;;0.50;;
39930;SDS011;26635;-35.248;149.138;2023-03-11T04:07:32;1.40;;;0.43;;
39930;SDS011;26635;-35.248;149.138;2023-03-11T04:10:04;1.45;;;0.70;;
39930;SDS011;26635;-35.248;149.138;2023-03-11T04:12:34;2.30;;;0.52;;
39930;SDS011;26635;-35.248;149.138;2023-03-11T04:15:10;2.72;;;0.60;;
39930;SDS011;26635;-35.248;149.138;2023-03-11T04:17:47;2.70;;;0.50;;
39930;SDS011;26635;-35.248;149.138;2023-03-11T04:20:17;2.20;;;0.63;;
39930;SDS011;26635;-35.248;149.138;2023-03-11T04:22:48;1.35;;;1.02;;
39930;SDS011;26635;-35.248;149.138;2023-03-11T04:25:19;1.05;;;0.52;;
39930;SDS011;26635;-35.248;149.138;2023-03-11T04:27:49;1.92;;;0.88;;
39930;SDS011;26635;-35.248;149.138;2023-03-11T04:30:20;1.33;;;0.52;;
39930;SDS011;26635;-35.248;149.138;2023-03-11T04:32:50;3.03;;;0.80;;
39930;SDS011;26635;-35.248;149.138;2023-03-11T04:35:22;1.27;;;0.50;;
39930;SDS011;26635;-35.248;149.138;2023-03-11T04:37:53;1.85;;;0.88;;
39930;SDS011;26635;-35.248;149.138;2023-03-11T04:40:24;3.45;;;0.50;;
39930;SDS011;26635;-35.248;149.138;2023-03-11T04:42:54;1.20;;;1.00;;
39930;SDS011;26635;-35.248;149.138;2023-03-11T04:45:24;2.60;;;0.65;;
39930;SDS011;26635;-35.248;149.138;2023-03-11T04:47:55;2.90;;;0.57;;
39930;SDS011;26635;-35.248;149.138;2023-03-11T04:50:27;1.27;;;0.35;;
39930;SDS011;26635;-35.248;149.138;2023-03-11T04:52:58;4.53;;;0.60;;
39930;SDS011;26635;-35.248;149.138;2023-03-11T04:55:29;2.72;;;0.77;;
39930;SDS011;26635;-35.248;149.138;2023-03-11T04:58:00;1.42;;;0.60;;
39930;SDS011;26635;-35.248;149.138;2023-03-11T05:00:34;2.22;;;0.60;;
39930;SDS011;26635;-35.248;149.138;2023-03-11T05:03:04;1.60;;;0.50;;
39930;SDS011;26635;-35.248;149.138;2023-03-11T05:05:35;1.85;;;0.50;;
39930;SDS011;26635;-35.248;149.138;2023-03-11T05:08:05;1.67;;;0.65;;
39930;SDS011;26635;-35.248;149.138;2023-03-11T05:10:38;2.75;;;0.60;;
39930;SDS011;26635;-35.248;149.138;2023-03-11T05:13:10;2.40;;;0.73;;
39930;SDS011;26635;-35.248;149.138;2023-03-11T05:15:40;2.00;;;0.88;;
39930;SDS011;26635;-35.248;149.138;2023-03-11T05:18:13;1.15;;;0.40;;
39930;SDS011;26635;-35.248;149.138;2023-03-11T05:20:44;2.50;;;0.40;;
39930;SDS011;26635;-35.248;149.138;2023-03-11T05:23:15;0.77;;;0.43;;
39930;SDS011;26635;-35.248;149.138;2023-03-11T05:25:47;0.65;;;0.40;;
39930;SDS011;26635;-35.248;149.138;2023-03-11T05:28:18;1.45;;;0.40;;
39930;SDS011;26635;-35.248;149.138;2023-03-11T05:30:48;2.03;;;0.50;;
39930;SDS011;26635;-35.248;149.138;2023-03-11T05:33:19;1.30;;;0.57;;
39930;SDS011;26635;-35.248;149.138;2023-03-11T05:35:49;1.95;;;0.50;;
39930;SDS011;26635;-35.248;149.138;2023-03-11T05:38:24;2.05;;;0.90;;
39930;SDS011;26635;-35.248;149.138;2023-03-11T05:40:58;2.45;;;0.65;;
39930;SDS011;26635;-35.248;149.138;2023-03-11T05:43:29;2.55;;;0.50;;
39930;SDS011;26635;-35.248;149.138;2023-03-11T05:46:00;2.83;;;0.52;;
39930;SDS011;26635;-35.248;149.138;2023-03-11T05:48:31;1.45;;;0.40;;
39930;SDS011;26635;-35.248;149.138;2023-03-11T05:51:06;2.25;;;0.75;;
39930;SDS011;26635;-35.248;149.138;2023-03-11T05:53:40;1.80;;;0.60;;
39930;SDS011;26635;-35.248;149.138;2023-03-11T05:56:16;1.00;;;0.45;;
39930;SDS011;26635;-35.248;149.138;2023-03-11T05:58:48;3.88;;;0.85;;
39930;SDS011;26635;-35.248;149.138;2023-03-11T06:01:18;2.65;;;0.85;;
39930;SDS011;26635;-35.248;149.138;2023-03-11T06:03:49;1.42;;;0.40;;
39930;SDS011;26635;-35.248;149.138;2023-03-11T06:06:19;1.75;;;0.40;;
39930;SDS011;26635;-35.248;149.138;2023-03-11T06:08:51;1.40;;;0.82;;
39930;SDS011;26635;-35.248;149.138;2023-03-11T06:11:22;3.67;;;0.50;;
39930;SDS011;26635;-35.248;149.138;2023-03-11T06:13:53;2.10;;;0.47;;
39930;SDS011;26635;-35.248;149.138;2023-03-11T06:16:52;1.38;;;0.40;;
39930;SDS011;26635;-35.248;149.138;2023-03-11T06:19:59;1.55;;;0.40;;
39930;SDS011;26635;-35.248;149.138;2023-03-11T06:22:29;2.28;;;0.40;;
39930;SDS011;26635;-35.248;149.138;2023-03-11T06:24:59;3.35;;;0.60;;
39930;SDS011;26635;-35.248;149.138;2023-03-11T06:27:30;2.50;;;0.40;;
39930;SDS011;26635;-35.248;149.138;2023-03-11T06:30:00;1.67;;;0.40;;
39930;SDS011;26635;-35.248;149.138;2023-03-11T06:32:30;1.38;;;0.52;;
39930;SDS011;26635;-35.248;149.138;2023-03-11T06:35:03;0.90;;;0.73;;
39930;SDS011;26635;-35.248;149.138;2023-03-11T06:37:36;2.25;;;0.50;;
39930;SDS011;26635;-35.248;149.138;2023-03-11T06:40:07;2.08;;;0.50;;
39930;SDS011;26635;-35.248;149.138;2023-03-11T06:42:38;2.25;;;0.30;;
39930;SDS011;26635;-35.248;149.138;2023-03-11T06:45:09;1.83;;;0.70;;
39930;SDS011;26635;-35.248;149.138;2023-03-11T06:47:39;3.03;;;0.40;;
39930;SDS011;26635;-35.248;149.138;2023-03-11T06:50:09;2.40;;;0.50;;
39930;SDS011;26635;-35.248;149.138;2023-03-11T06:52:40;1.88;;;0.40;;
39930;SDS011;26635;-35.248;149.138;2023-03-11T06:55:10;1.42;;;0.45;;
39930;SDS011;26635;-35.248;149.138;2023-03-11T06:57:40;3.53;;;0.50;;
39930;SDS011;26635;-35.248;149.138;2023-03-11T07:00:13;2.92;;;0.80;;
39930;SDS011;26635;-35.248;149.138;2023-03-11T07:02:44;1.75;;;0.65;;
39930;SDS011;26635;-35.248;149.138;2023-03-11T07:05:15;1.95;;;0.50;;
39930;SDS011;26635;-35.248;149.138;2023-03-11T07:07:45;1.48;;;0.60;;
39930;SDS011;26635;-35.248;149.138;2023-03-11T07:10:16;1.25;;;0.60;;
39930;SDS011;26635;-35.248;149.138;2023-03-11T07:12:47;0.95;;;0.50;;
39930;SDS011;26635;-35.248;149.138;2023-03-11T07:15:18;1.38;;;0.40;;
39930;SDS011;26635;-35.248;149.138;2023-03-11T07:17:48;1.88;;;0.45;;
39930;SDS011;26635;-35.248;149.138;2023-03-11T07:20:19;2.00;;;0.50;;
39930;SDS011;26635;-35.248;149.138;2023-03-11T07:22:49;2.28;;;0.38;;
39930;SDS011;26635;-35.248;149.138;2023-03-11T07:25:20;3.03;;;0.57;;
39930;SDS011;26635;-35.248;149.138;2023-03-11T07:27:50;2.58;;;0.70;;
39930;SDS011;26635;-35.248;149.138;2023-03-11T07:30:20;3.15;;;0.60;;
39930;SDS011;26635;-35.248;149.138;2023-03-11T07:32:52;3.38;;;0.50;;
39930;SDS011;26635;-35.248;149.138;2023-03-11T07:35:22;2.80;;;0.50;;
39930;SDS011;26635;-35.248;149.138;2023-03-11T07:37:53;2.35;;;0.55;;
39930;SDS011;26635;-35.248;149.138;2023-03-11T07:40:24;2.15;;;0.63;;
39930;SDS011;26635;-35.248;149.138;2023-03-11T07:42:54;2.70;;;0.60;;
39930;SDS011;26635;-35.248;149.138;2023-03-11T07:45:24;1.65;;;0.50;;
39930;SDS011;26635;-35.248;149.138;2023-03-11T07:47:55;2.10;;;0.57;;
39930;SDS011;26635;-35.248;149.138;2023-03-11T07:50:25;1.50;;;0.60;;
39930;SDS011;26635;-35.248;149.138;2023-03-11T07:52:56;3.53;;;0.68;;
39930;SDS011;26635;-35.248;149.138;2023-03-11T07:55:28;1.92;;;0.82;;
39930;SDS011;26635;-35.248;149.138;2023-03-11T07:57:58;1.05;;;0.52;;
39930;SDS011;26635;-35.248;149.138;2023-03-11T08:00:28;2.97;;;0.60;;
39930;SDS011;26635;-35.248;149.138;2023-03-11T08:02:59;1.38;;;0.63;;
39930;SDS011;26635;-35.248;149.138;2023-03-11T08:05:32;1.00;;;0.40;;
39930;SDS011;26635;-35.248;149.138;2023-03-11T08:08:02;1.48;;;0.43;;
39930;SDS011;26635;-35.248;149.138;2023-03-11T08:10:35;1.88;;;0.60;;
39930;SDS011;26635;-35.248;149.138;2023-03-11T08:13:05;1.73;;;0.60;;
39930;SDS011;26635;-35.248;149.138;2023-03-11T08:15:36;3.88;;;0.90;;
39930;SDS011;26635;-35.248;149.138;2023-03-11T08:18:06;1.63;;;1.00;;
39930;SDS011;26635;-35.248;149.138;2023-03-11T08:20:37;1.52;;;0.43;;
39930;SDS011;26635;-35.248;149.138;2023-03-11T08:23:08;3.58;;;0.77;;
39930;SDS011;26635;-35.248;149.138;2023-03-11T08:25:39;1.48;;;0.40;;
39930;SDS011;26635;-35.248;149.138;2023-03-11T08:28:09;2.13;;;1.05;;
39930;SDS011;26635;-35.248;149.138;2023-03-11T08:30:40;1.90;;;0.68;;
39930;SDS011;26635;-35.248;149.138;2023-03-11T08:33:10;2.40;;;0.50;;
39930;SDS011;26635;-35.248;149.138;2023-03-11T08:35:41;3.45;;;0.77;;
39930;SDS011;26635;-35.248;149.138;2023-03-11T08:38:12;3.63;;;0.70;;
39930;SDS011;26635;-35.248;149.138;2023-03-11T08:40:42;2.25;;;0.63;;
39930;SDS011;26635;-35.248;149.138;2023-03-11T08:43:13;3.78;;;0.85;;
39930;SDS011;26635;-35.248;149.138;2023-03-11T08:45:43;1.58;;;0.60;;
39930;SDS011;26635;-35.248;149.138;2023-03-11T08:48:15;1.85;;;0.80;;
39930;SDS011;26635;-35.248;149.138;2023-03-11T08:50:45;4.68;;;1.15;;
39930;SDS011;26635;-35.248;149.138;2023-03-11T08:53:21;2.65;;;0.70;;
39930;SDS011;26635;-35.248;149.138;2023-03-11T08:55:52;2.53;;;1.13;;
39930;SDS011;26635;-35.248;149.138;2023-03-11T08:58:22;2.30;;;0.90;;
39930;SDS011;26635;-35.248;149.138;2023-03-11T09:00:52;1.55;;;0.65;;
39930;SDS011;26635;-35.248;149.138;2023-03-11T09:03:23;2.10;;;0.80;;
39930;SDS011;26635;-35.248;149.138;2023-03-11T09:05:57;2.85;;;1.00;;
39930;SDS011;26635;-35.248;149.138;2023-03-11T09:08:32;4.22;;;1.17;;
39930;SDS011;26635;-35.248;149.138;2023-03-11T09:11:03;2.40;;;1.00;;
39930;SDS011;26635;-35.248;149.138;2023-03-11T09:13:34;2.05;;;1.02;;
39930;SDS011;26635;-35.248;149.138;2023-03-11T09:16:04;3.25;;;1.08;;
39930;SDS011;26635;-35.248;149.138;2023-03-11T09:18:40;3.30;;;1.50;;
39930;SDS011;26635;-35.248;149.138;2023-03-11T09:21:11;2.78;;;1.00;;
39930;SDS011;26635;-35.248;149.138;2023-03-11T09:23:41;2.55;;;1.05;;
39930;SDS011;26635;-35.248;149.138;2023-03-11T09:26:12;3.38;;;1.42;;
39930;SDS011;26635;-35.248;149.138;2023-03-11T09:28:43;5.40;;;1.35;;
39930;SDS011;26635;-35.248;149.138;2023-03-11T09:31:16;5.70;;;1.55;;
39930;SDS011;26635;-35.248;149.138;2023-03-11T09:33:48;4.88;;;1.67;;
39930;SDS011;26635;-35.248;149.138;2023-03-11T09:36:23;4.60;;;1.98;;
39930;SDS011;26635;-35.248;149.138;2023-03-11T09:38:54;4.18;;;1.90;;
39930;SDS011;26635;-35.248;149.138;2023-03-11T09:50:05;14.75;;;11.15;;
39930;SDS011;26635;-35.248;149.138;2023-03-11T09:55:23;14.02;;;9.05;;
39930;SDS011;26635;-35.248;149.138;2023-03-11T09:58:02;14.77;;;9.35;;
39930;SDS011;26635;-35.248;149.138;2023-03-11T10:00:43;11.45;;;7.57;;
39930;SDS011;26635;-35.248;149.138;2023-03-11T10:03:17;9.25;;;5.35;;
39930;SDS011;26635;-35.248;149.138;2023-03-11T10:05:57;6.45;;;4.55;;
39930;SDS011;26635;-35.248;149.138;2023-03-11T10:16:55;8.38;;;3.28;;
39930;SDS011;26635;-35.248;149.138;2023-03-11T10:19:52;4.78;;;2.88;;
39930;SDS011;26635;-35.248;149.138;2023-03-11T10:25:17;4.32;;;2.55;;
39930;SDS011;26635;-35.248;149.138;2023-03-11T10:28:10;5.45;;;2.60;;
39930;SDS011;26635;-35.248;149.138;2023-03-11T10:33:39;4.22;;;2.38;;
39930;SDS011;26635;-35.248;149.138;2023-03-11T10:36:35;5.07;;;3.17;;
39930;SDS011;26635;-35.248;149.138;2023-03-11T10:39:08;9.57;;;3.45;;
39930;SDS011;26635;-35.248;149.138;2023-03-11T10:44:31;8.10;;;3.88;;
39930;SDS011;26635;-35.248;149.138;2023-03-11T10:47:05;6.10;;;4.03;;
39930;SDS011;26635;-35.248;149.138;2023-03-11T10:49:43;7.85;;;4.13;;
39930;SDS011;26635;-35.248;149.138;2023-03-11T10:52:14;6.20;;;3.72;;
39930;SDS011;26635;-35.248;149.138;2023-03-11T10:54:45;4.57;;;3.38;;
39930;SDS011;26635;-35.248;149.138;2023-03-11T10:57:28;6.68;;;2.70;;
39930;SDS011;26635;-35.248;149.138;2023-03-11T11:00:05;4.25;;;2.58;;
39930;SDS011;26635;-35.248;149.138;2023-03-11T11:02:50;5.72;;;2.22;;
39930;SDS011;26635;-35.248;149.138;2023-03-11T11:05:29;3.38;;;2.42;;
39930;SDS011;26635;-35.248;149.138;2023-03-11T11:08:05;3.43;;;2.23;;
39930;SDS011;26635;-35.248;149.138;2023-03-11T11:10:59;5.72;;;3.00;;
39930;SDS011;26635;-35.248;149.138;2023-03-11T11:13:32;18.20;;;6.00;;
39930;SDS011;26635;-35.248;149.138;2023-03-11T11:16:05;14.25;;;6.45;;
39930;SDS011;26635;-35.248;149.138;2023-03-11T11:18:53;11.52;;;5.43;;
39930;SDS011;26635;-35.248;149.138;2023-03-11T11:27:03;4.72;;;2.40;;
39930;SDS011;26635;-35.248;149.138;2023-03-11T11:29:40;4.70;;;2.38;;
39930;SDS011;26635;-35.248;149.138;2023-03-11T11:32:15;7.47;;;2.22;;
39930;SDS011;26635;-35.248;149.138;2023-03-11T11:34:58;4.30;;;1.92;;
39930;SDS011;26635;-35.248;149.138;2023-03-11T11:37:32;3.35;;;1.55;;
39930;SDS011;26635;-35.248;149.138;2023-03-11T11:42:58;2.97;;;1.40;;
39930;SDS011;26635;-35.248;149.138;2023-03-11T11:50:59;3.47;;;1.23;;
39930;SDS011;26635;-35.248;149.138;2023-03-11T11:53:45;3.15;;;1.50;;
39930;SDS011;26635;-35.248;149.138;2023-03-11T11:56:37;2.42;;;1.10;;
39930;SDS011;26635;-35.248;149.138;2023-03-11T11:59:18;1.88;;;1.10;;
39930;SDS011;26635;-35.248;149.138;2023-03-11T12:01:54;2.90;;;1.65;;
39930;SDS011;26635;-35.248;149.138;2023-03-11T12:04:37;4.28;;;1.17;;
39930;SDS011;26635;-35.248;149.138;2023-03-11T12:07:49;2.05;;;0.93;;
39930;SDS011;26635;-35.248;149.138;2023-03-11T12:13:26;2.53;;;1.40;;
39930;SDS011;26635;-35.248;149.138;2023-03-11T12:21:53;5.22;;;1.98;;
39930;SDS011;26635;-35.248;149.138;2023-03-11T12:24:39;5.43;;;2.33;;
39930;SDS011;26635;-35.248;149.138;2023-03-11T12:30:04;7.47;;;3.28;;
39930;SDS011;26635;-35.248;149.138;2023-03-11T12:33:00;6.32;;;3.33;;
39930;SDS011;26635;-35.248;149.138;2023-03-11T12:35:37;6.72;;;3.08;;
39930;SDS011;26635;-35.248;149.138;2023-03-11T12:40:45;4.93;;;2.92;;
39930;SDS011;26635;-35.248;149.138;2023-03-11T12:46:07;5.40;;;3.03;;
39930;SDS011;26635;-35.248;149.138;2023-03-11T12:51:37;5.80;;;2.88;;
39930;SDS011;26635;-35.248;149.138;2023-03-11T13:07:47;5.07;;;3.25;;
39930;SDS011;26635;-35.248;149.138;2023-03-11T13:18:45;6.93;;;3.42;;
39930;SDS011;26635;-35.248;149.138;2023-03-11T13:27:33;5.88;;;3.80;;
39930;SDS011;26635;-35.248;149.138;2023-03-11T13:30:14;7.47;;;3.47;;
39930;SDS011;26635;-35.248;149.138;2023-03-11T13:36:09;5.72;;;3.03;;
39930;SDS011;26635;-35.248;149.138;2023-03-11T13:41:34;6.20;;;3.65;;
39930;SDS011;26635;-35.248;149.138;2023-03-11T13:47:14;4.85;;;3.05;;
39930;SDS011;26635;-35.248;149.138;2023-03-11T13:52:47;5.20;;;3.30;;
39930;SDS011;26635;-35.248;149.138;2023-03-11T13:55:42;5.47;;;3.15;;
39930;SDS011;26635;-35.248;149.138;2023-03-11T13:58:26;5.10;;;2.92;;
39930;SDS011;26635;-35.248;149.138;2023-03-11T14:00:58;6.07;;;3.72;;
39930;SDS011;26635;-35.248;149.138;2023-03-11T14:03:35;5.45;;;3.42;;
39930;SDS011;26635;-35.248;149.138;2023-03-11T14:06:12;7.03;;;3.97;;
39930;SDS011;26635;-35.248;149.138;2023-03-11T14:08:53;8.27;;;3.75;;
39930;SDS011;26635;-35.248;149.138;2023-03-11T14:11:26;6.85;;;4.30;;
39930;SDS011;26635;-35.248;149.138;2023-03-11T14:13:58;6.20;;;4.22;;
39930;SDS011;26635;-35.248;149.138;2023-03-11T14:16:30;5.35;;;3.28;;
39930;SDS011;26635;-35.248;149.138;2023-03-11T14:19:17;4.95;;;3.47;;
39930;SDS011;26635;-35.248;149.138;2023-03-11T14:21:49;6.65;;;3.50;;
39930;SDS011;26635;-35.248;149.138;2023-03-11T14:24:27;8.35;;;3.97;;
39930;SDS011;26635;-35.248;149.138;2023-03-11T14:26:59;9.75;;;3.58;;
39930;SDS011;26635;-35.248;149.138;2023-03-11T14:29:34;7.03;;;3.67;;
39930;SDS011;26635;-35.248;149.138;2023-03-11T14:32:27;9.10;;;4.30;;
39930;SDS011;26635;-35.248;149.138;2023-03-11T14:35:16;5.68;;;3.28;;
39930;SDS011;26635;-35.248;149.138;2023-03-11T14:37:49;5.07;;;3.13;;
39930;SDS011;26635;-35.248;149.138;2023-03-11T14:40:25;6.00;;;3.50;;
39930;SDS011;26635;-35.248;149.138;2023-03-11T14:43:02;5.35;;;3.38;;
39930;SDS011;26635;-35.248;149.138;2023-03-11T14:45:38;6.32;;;3.42;;
39930;SDS011;26635;-35.248;149.138;2023-03-11T14:50:51;4.95;;;3.50;;
39930;SDS011;26635;-35.248;149.138;2023-03-11T14:53:34;6.55;;;4.20;;
39930;SDS011;26635;-35.248;149.138;2023-03-11T14:56:14;5.40;;;4.13;;
39930;SDS011;26635;-35.248;149.138;2023-03-11T14:59:22;11.00;;;3.58;;
39930;SDS011;26635;-35.248;149.138;2023-03-11T15:01:54;6.15;;;3.47;;
39930;SDS011;26635;-35.248;149.138;2023-03-11T15:04:31;5.82;;;2.72;;
39930;SDS011;26635;-35.248;149.138;2023-03-11T15:09:38;3.72;;;2.97;;
39930;SDS011;26635;-35.248;149.138;2023-03-11T15:12:28;5.15;;;3.40;;
39930;SDS011;26635;-35.248;149.138;2023-03-11T15:15:20;6.35;;;3.58;;
39930;SDS011;26635;-35.248;149.138;2023-03-11T15:17:52;6.15;;;3.65;;
39930;SDS011;26635;-35.248;149.138;2023-03-11T15:20:33;5.65;;;3.53;;
39930;SDS011;26635;-35.248;149.138;2023-03-11T15:23:06;6.55;;;3.38;;
39930;SDS011;26635;-35.248;149.138;2023-03-11T15:25:51;6.20;;;3.33;;
39930;SDS011;26635;-35.248;149.138;2023-03-11T15:28:28;5.18;;;3.15;;
39930;SDS011;26635;-35.248;149.138;2023-03-11T15:31:14;6.18;;;3.13;;
39930;SDS011;26635;-35.248;149.138;2023-03-11T15:33:46;6.53;;;3.47;;
39930;SDS011;26635;-35.248;149.138;2023-03-11T15:42:16;6.47;;;3.03;;
39930;SDS011;26635;-35.248;149.138;2023-03-11T15:45:02;6.63;;;3.65;;
39930;SDS011;26635;-35.248;149.138;2023-03-11T15:47:43;6.43;;;3.22;;
39930;SDS011;26635;-35.248;149.138;2023-03-11T15:50:17;6.70;;;3.50;;
39930;SDS011;26635;-35.248;149.138;2023-03-11T15:53:12;5.88;;;3.80;;
39930;SDS011;26635;-35.248;149.138;2023-03-11T15:55:43;8.88;;;4.18;;
39930;SDS011;26635;-35.248;149.138;2023-03-11T15:58:15;5.25;;;3.10;;
39930;SDS011;26635;-35.248;149.138;2023-03-11T16:00:51;7.68;;;3.38;;
39930;SDS011;26635;-35.248;149.138;2023-03-11T16:03:27;6.13;;;3.80;;
39930;SDS011;26635;-35.248;149.138;2023-03-11T16:05:58;7.70;;;3.60;;
39930;SDS011;26635;-35.248;149.138;2023-03-11T16:08:29;7.80;;;4.65;;
39930;SDS011;26635;-35.248;149.138;2023-03-11T16:11:00;5.97;;;3.90;;
39930;SDS011;26635;-35.248;149.138;2023-03-11T16:13:30;6.18;;;3.53;;
39930;SDS011;26635;-35.248;149.138;2023-03-11T16:16:02;7.45;;;3.83;;
39930;SDS011;26635;-35.248;149.138;2023-03-11T16:18:33;6.32;;;3.60;;
39930;SDS011;26635;-35.248;149.138;2023-03-11T16:21:04;8.52;;;3.65;;
39930;SDS011;26635;-35.248;149.138;2023-03-11T16:23:39;4.60;;;3.42;;
39930;SDS011;26635;-35.248;149.138;2023-03-11T16:26:18;6.30;;;3.22;;
39930;SDS011;26635;-35.248;149.138;2023-03-11T16:28:50;6.40;;;3.20;;
39930;SDS011;26635;-35.248;149.138;2023-03-11T16:31:21;5.47;;;3.40;;
39930;SDS011;26635;-35.248;149.138;2023-03-11T16:33:51;4.53;;;2.90;;
39930;SDS011;26635;-35.248;149.138;2023-03-11T16:36:22;4.45;;;2.97;;
39930;SDS011;26635;-35.248;149.138;2023-03-11T16:38:53;7.75;;;3.88;;
39930;SDS011;26635;-35.248;149.138;2023-03-11T16:41:23;7.90;;;4.35;;
39930;SDS011;26635;-35.248;149.138;2023-03-11T16:43:54;4.97;;;3.55;;
39930;SDS011;26635;-35.248;149.138;2023-03-11T16:46:25;5.88;;;2.92;;
39930;SDS011;26635;-35.248;149.138;2023-03-11T16:48:56;4.57;;;3.40;;